Time;durP1;ratioP1;P1;durP2;ratioP2;P2;SDS_P1;SDS_P2;PMS_P1;PMS_P2;Temp;Humidity;BMP_temperature;BMP_pressure;BME280_temperature;BME280_humidity;BME280_pressure;Samples;Min_cycle;Max_cycle;Signal;HPM_P1;HPM_P2
2022/05/21 00:01:50;;;;;;;16.90;7.93;;;14.20;44.90;;;;;;5021611;28;20029;-77
2022/05/21 00:04:16;;;;;;;15.57;7.32;;;14.10;44.80;;;;;;5022111;28;20041;-77
2022/05/21 00:06:42;;;;;;;14.50;7.25;;;14.10;44.90;;;;;;5024035;28;20033;-77
2022/05/21 00:09:09;;;;;;;12.65;7.03;;;14.10;45.10;;;;;;5028461;28;20083;-78
2022/05/21 00:11:36;;;;;;;18.70;7.00;;;14.10;45.20;;;;;;5028182;28;20033;-78
2022/05/21 00:14:03;;;;;;;13.15;7.32;;;14.10;45.40;;;;;;5043126;28;20034;-78
2022/05/21 00:16:29;;;;;;;16.13;7.45;;;14.10;45.50;;;;;;5027587;28;20099;-78
2022/05/21 00:18:56;;;;;;;11.82;7.25;;;14.00;45.50;;;;;;5028321;28;20033;-78
2022/05/21 00:21:23;;;;;;;12.90;7.53;;;14.00;45.60;;;;;;5023048;28;20116;-77
2022/05/21 00:23:50;;;;;;;13.95;7.45;;;14.00;45.70;;;;;;5028452;28;20037;-78
2022/05/21 00:26:17;;;;;;;11.68;7.55;;;13.90;45.70;;;;;;5026938;28;20048;-77
2022/05/21 00:28:45;;;;;;;16.55;6.88;;;13.90;45.70;;;;;;5021732;28;20038;-78
2022/05/21 00:31:14;;;;;;;10.50;6.97;;;13.90;46.10;;;;;;5022678;28;20049;-77
2022/05/21 00:33:41;;;;;;;13.95;7.07;;;13.90;46.50;;;;;;5044099;28;20047;-77
2022/05/21 00:36:08;;;;;;;19.25;7.50;;;13.80;46.80;;;;;;5029698;28;20063;-77
2022/05/21 00:38:35;;;;;;;14.95;8.00;;;13.80;46.50;;;;;;5031649;28;20107;-77
2022/05/21 00:41:01;;;;;;;13.52;7.82;;;13.80;46.40;;;;;;5024897;28;20444;-77
2022/05/21 00:43:42;;;;;;;12.77;7.38;;;13.70;46.20;;;;;;5029283;28;20025;-77
2022/05/21 00:46:12;;;;;;;11.80;7.80;;;13.70;46.20;;;;;;5027211;28;20029;-78
2022/05/21 00:48:39;;;;;;;13.70;8.05;;;13.70;46.20;;;;;;5025693;28;20541;-78
2022/05/21 00:51:16;;;;;;;13.40;7.78;;;13.70;46.20;;;;;;5014247;28;20484;-77
2022/05/21 00:53:45;;;;;;;14.90;8.07;;;13.70;46.20;;;;;;5027264;28;20040;-77
2022/05/21 00:56:11;;;;;;;11.98;7.20;;;13.70;46.30;;;;;;4991274;28;20492;-77
2022/05/21 01:01:26;;;;;;;14.23;7.97;;;13.60;47.20;;;;;;5028234;28;20172;-78
2022/05/21 01:03:52;;;;;;;12.82;7.50;;;13.60;47.00;;;;;;5026727;28;20021;-78
2022/05/21 01:06:18;;;;;;;18.38;8.23;;;13.60;46.80;;;;;;5027373;28;20029;-76
2022/05/21 01:08:44;;;;;;;14.00;7.47;;;13.60;46.60;;;;;;5023620;28;20050;-78
2022/05/21 01:11:15;;;;;;;16.15;7.75;;;13.60;46.60;;;;;;5025173;28;20037;-76
2022/05/21 01:13:44;;;;;;;15.10;7.47;;;13.60;46.70;;;;;;5027602;28;20062;-77
2022/05/21 01:16:13;;;;;;;12.13;7.38;;;13.60;46.60;;;;;;5039774;28;20644;-76
2022/05/21 01:18:40;;;;;;;16.13;7.35;;;13.50;46.60;;;;;;5028320;28;20117;-76
2022/05/21 01:21:07;;;;;;;14.02;7.53;;;13.50;46.70;;;;;;5030706;28;20123;-76
2022/05/21 01:23:34;;;;;;;10.93;7.07;;;13.50;46.60;;;;;;5010469;28;20046;-75
2022/05/21 01:26:03;;;;;;;15.18;7.15;;;13.50;46.70;;;;;;5024909;28;20037;-76
2022/05/21 01:28:33;;;;;;;14.43;7.78;;;13.40;46.60;;;;;;5030164;28;20127;-77
2022/05/21 01:31:00;;;;;;;12.85;7.45;;;13.40;47.20;;;;;;5026617;28;20534;-77
2022/05/21 01:33:34;;;;;;;12.75;6.93;;;13.30;46.50;;;;;;5030027;28;20082;-78
2022/05/21 01:36:01;;;;;;;12.85;7.53;;;13.30;46.50;;;;;;5013230;28;20500;-77
2022/05/21 01:38:30;;;;;;;13.93;7.28;;;13.30;46.50;;;;;;5044365;28;20055;-77
2022/05/21 01:40:57;;;;;;;13.73;7.57;;;13.30;46.50;;;;;;5026485;28;20392;-76
2022/05/21 01:46:13;;;;;;;14.00;6.60;;;13.30;46.40;;;;;;5028653;28;20049;-77
2022/05/21 01:48:39;;;;;;;12.77;7.38;;;13.30;46.30;;;;;;5030172;28;20037;-77
2022/05/21 01:51:06;;;;;;;13.75;7.00;;;13.40;46.30;;;;;;5026034;28;20038;-77
2022/05/21 01:53:34;;;;;;;15.70;6.78;;;13.40;46.90;;;;;;5026104;28;20041;-77
2022/05/21 01:56:00;;;;;;;12.73;7.40;;;13.40;46.30;;;;;;5021485;28;20066;-76
2022/05/21 01:58:28;;;;;;;13.20;7.25;;;13.40;46.40;;;;;;5020469;28;20049;-77
2022/05/21 02:00:55;;;;;;;13.13;6.70;;;13.30;46.40;;;;;;5005050;28;20021;-77
2022/05/21 02:03:22;;;;;;;13.32;6.63;;;13.30;46.50;;;;;;5022082;28;20022;-77
2022/05/21 02:05:48;;;;;;;14.98;6.95;;;13.30;46.50;;;;;;5020402;28;20030;-77
2022/05/21 02:08:15;;;;;;;10.43;6.47;;;13.30;46.50;;;;;;5021140;28;20510;-77
2022/05/21 02:10:43;;;;;;;13.52;6.97;;;13.30;46.50;;;;;;5022947;28;20088;-77
2022/05/21 02:13:31;;;;;;;12.25;6.38;;;13.40;46.50;;;;;;5020615;28;20072;-78
2022/05/21 02:15:57;;;;;;;11.10;6.97;;;13.40;46.50;;;;;;5020750;28;20452;-77
2022/05/21 02:18:24;;;;;;;14.13;6.85;;;13.40;46.50;;;;;;5022657;28;20056;-77
2022/05/21 02:20:51;;;;;;;12.15;6.25;;;13.40;46.40;;;;;;5019600;28;20084;-77
2022/05/21 02:23:18;;;;;;;9.73;6.40;;;13.50;46.30;;;;;;5022161;28;20104;-78
2022/05/21 02:25:45;;;;;;;12.20;6.57;;;13.50;46.40;;;;;;5020138;28;20037;-78
2022/05/21 02:28:12;;;;;;;10.52;6.50;;;13.50;46.40;;;;;;5022418;28;20455;-77
2022/05/21 02:30:38;;;;;;;11.40;6.70;;;13.50;46.40;;;;;;5005244;28;20029;-77
2022/05/21 02:33:05;;;;;;;11.52;6.25;;;13.50;46.50;;;;;;5021088;28;20060;-77
2022/05/21 02:35:30;;;;;;;11.45;6.60;;;13.50;46.60;;;;;;5019862;28;20049;-77
2022/05/21 02:40:41;;;;;;;15.20;6.85;;;13.60;46.80;;;;;;5020066;28;20120;-77
2022/05/21 02:43:07;;;;;;;19.67;7.55;;;13.60;46.70;;;;;;5022739;28;20034;-78
2022/05/21 02:45:33;;;;;;;17.88;7.45;;;13.60;46.90;;;;;;5025179;28;20036;-77
2022/05/21 02:47:59;;;;;;;17.75;6.75;;;13.60;46.90;;;;;;5020844;28;20043;-77
2022/05/21 02:50:32;;;;;;;15.80;8.05;;;13.60;47.10;;;;;;5021355;28;20041;-78
2022/05/21 02:53:03;;;;;;;13.20;7.72;;;13.50;47.10;;;;;;5019775;28;20029;-77
2022/05/21 02:55:30;;;;;;;13.70;6.95;;;13.60;47.20;;;;;;5024629;28;21059;-78
2022/05/21 02:57:56;;;;;;;16.10;7.72;;;13.60;47.30;;;;;;5019257;28;20442;-77
2022/05/21 03:00:25;;;;;;;16.65;8.23;;;13.60;48.00;;;;;;5003850;28;20033;-77
2022/05/21 03:02:51;;;;;;;14.18;7.90;;;13.60;48.00;;;;;;5018041;28;20527;-77
2022/05/21 03:05:18;;;;;;;14.88;7.25;;;13.70;47.50;;;;;;5023971;28;20041;-78
2022/05/21 03:07:46;;;;;;;16.85;8.07;;;13.70;47.40;;;;;;5020741;28;20039;-77
2022/05/21 03:10:21;;;;;;;20.58;8.40;;;13.80;47.40;;;;;;5020156;28;20547;-77
2022/05/21 03:13:07;;;;;;;16.93;9.87;;;13.80;47.40;;;;;;5022547;28;20032;-77
2022/05/21 03:15:38;;;;;;;20.00;9.50;;;13.80;47.40;;;;;;5022618;28;20045;-77
2022/05/21 03:18:08;;;;;;;23.40;9.65;;;13.80;47.40;;;;;;5020075;28;20044;-77
2022/05/21 03:20:34;;;;;;;24.92;10.75;;;13.80;47.30;;;;;;5021543;28;20052;-77
2022/05/21 03:23:00;;;;;;;27.92;11.00;;;13.80;47.30;;;;;;5020738;28;20506;-77
2022/05/21 03:25:27;;;;;;;34.20;11.27;;;13.80;47.40;;;;;;5021172;28;20059;-77
2022/05/21 03:27:53;;;;;;;26.42;10.82;;;13.90;47.40;;;;;;5018726;28;20056;-78
2022/05/21 03:30:23;;;;;;;29.27;11.57;;;13.80;47.30;;;;;;5018751;28;20481;-78
2022/05/21 03:32:49;;;;;;;26.20;11.70;;;13.90;47.30;;;;;;5019999;28;21050;-77
2022/05/21 03:35:19;;;;;;;29.52;11.10;;;13.90;47.10;;;;;;5019519;28;20030;-77
2022/05/21 03:37:46;;;;;;;22.88;10.30;;;14.00;47.00;;;;;;5003065;28;20038;-78
2022/05/21 03:40:19;;;;;;;25.05;10.18;;;14.20;47.10;;;;;;5023971;28;20543;-77
2022/05/21 03:42:45;;;;;;;26.25;11.25;;;14.30;47.00;;;;;;5023473;28;20060;-77
2022/05/21 03:45:13;;;;;;;20.02;9.43;;;14.50;46.90;;;;;;5018269;28;20511;-76
2022/05/21 03:47:41;;;;;;;18.45;9.38;;;14.60;46.70;;;;;;5019553;28;20087;-77
2022/05/21 03:50:11;;;;;;;24.17;8.25;;;14.80;46.60;;;;;;5019919;28;20073;-77
2022/05/21 03:52:39;;;;;;;15.10;8.13;;;14.90;46.40;;;;;;5037360;28;20125;-76
2022/05/21 03:55:07;;;;;;;19.55;8.23;;;15.10;46.20;;;;;;5019995;28;20392;-77
2022/05/21 03:57:33;;;;;;;16.92;7.65;;;15.20;46.00;;;;;;5020196;28;20042;-75
2022/05/21 03:59:59;;;;;;;15.38;7.07;;;15.40;45.80;;;;;;5020556;28;20049;-76
2022/05/21 04:02:25;;;;;;;19.00;7.32;;;15.50;45.70;;;;;;5020870;28;20038;-76
2022/05/21 04:04:51;;;;;;;15.75;7.18;;;15.70;45.70;;;;;;5018763;28;20048;-76
2022/05/21 04:07:17;;;;;;;14.30;6.90;;;15.90;45.60;;;;;;5019808;28;20069;-77
2022/05/21 04:09:43;;;;;;;15.52;6.78;;;16.00;45.30;;;;;;5019096;28;20493;-76
2022/05/21 04:12:10;;;;;;;14.73;6.65;;;16.10;45.20;;;;;;5022317;28;20072;-76
2022/05/21 04:14:36;;;;;;;13.10;6.43;;;16.30;45.10;;;;;;5026183;28;20037;-76
2022/05/21 04:17:04;;;;;;;13.23;6.15;;;16.40;45.00;;;;;;5018743;28;20073;-76
2022/05/21 04:19:30;;;;;;;12.95;5.70;;;16.60;45.00;;;;;;5009884;28;20065;-76
2022/05/21 04:21:57;;;;;;;9.60;5.78;;;16.70;44.80;;;;;;5025911;28;20025;-76
2022/05/21 04:24:23;;;;;;;9.27;5.10;;;16.90;44.80;;;;;;5021073;28;20101;-76
2022/05/21 04:26:50;;;;;;;10.13;4.82;;;17.00;44.60;;;;;;5023094;28;20049;-76
2022/05/21 04:29:16;;;;;;;9.45;4.88;;;17.10;44.50;;;;;;5025019;28;20041;-76
2022/05/21 04:31:43;;;;;;;9.55;4.75;;;17.30;44.50;;;;;;5021029;28;20033;-76
2022/05/21 04:34:09;;;;;;;6.00;4.22;;;17.40;44.40;;;;;;5009261;28;21404;-76
2022/05/21 04:36:35;;;;;;;8.20;4.40;;;17.50;44.30;;;;;;5022587;28;20033;-76
2022/05/21 04:39:01;;;;;;;7.53;3.90;;;17.70;44.20;;;;;;5021690;28;20444;-76
2022/05/21 04:41:28;;;;;;;6.88;3.75;;;17.80;44.00;;;;;;5024297;28;20075;-76
2022/05/21 04:43:54;;;;;;;6.47;3.70;;;17.90;43.90;;;;;;5038459;28;20524;-76
2022/05/21 04:46:24;;;;;;;6.43;3.58;;;18.00;43.90;;;;;;5024716;28;20030;-76
2022/05/21 04:48:51;;;;;;;4.13;3.30;;;18.10;43.80;;;;;;5021275;28;20088;-75
2022/05/21 04:51:17;;;;;;;7.88;3.60;;;18.30;43.70;;;;;;5027892;28;20460;-76
2022/05/21 04:53:44;;;;;;;5.38;3.25;;;18.40;43.70;;;;;;5023324;28;20140;-76
2022/05/21 04:56:11;;;;;;;5.97;3.42;;;18.50;43.60;;;;;;5021701;28;20034;-76
2022/05/21 04:58:37;;;;;;;5.28;3.20;;;18.60;43.60;;;;;;5023852;28;20029;-78
2022/05/21 05:01:06;;;;;;;5.20;3.15;;;18.70;43.60;;;;;;5026007;28;20625;-78
2022/05/21 05:03:32;;;;;;;7.80;3.60;;;18.80;43.60;;;;;;5021800;28;20037;-78
2022/05/21 05:05:58;;;;;;;6.18;3.40;;;18.90;43.60;;;;;;5026467;28;20034;-78
2022/05/21 05:08:24;;;;;;;5.03;3.00;;;19.00;43.60;;;;;;5026154;28;20057;-78
2022/05/21 05:10:51;;;;;;;5.88;3.38;;;19.10;43.60;;;;;;5019696;28;20057;-78
2022/05/21 05:13:18;;;;;;;5.90;3.15;;;19.20;44.20;;;;;;5022830;28;20355;-75
2022/05/21 05:15:46;;;;;;;4.70;3.40;;;19.30;43.60;;;;;;5009782;28;20056;-76
2022/05/21 05:18:27;;;;;;;8.82;3.85;;;19.40;43.60;;;;;;5022029;28;20037;-78
2022/05/21 05:20:53;;;;;;;5.45;3.58;;;19.50;43.60;;;;;;5021299;28;20516;-78
2022/05/21 05:23:19;;;;;;;7.70;3.80;;;19.60;43.60;;;;;;5022223;28;20041;-77
2022/05/21 05:25:45;;;;;;;6.50;3.83;;;19.70;43.60;;;;;;5004857;28;20037;-77
2022/05/21 05:28:20;;;;;;;7.60;3.65;;;19.80;43.60;;;;;;5023567;28;20562;-77
2022/05/21 05:30:49;;;;;;;4.97;3.55;;;19.90;43.70;;;;;;5005412;28;20129;-77
2022/05/21 05:33:16;;;;;;;7.35;3.50;;;20.00;43.60;;;;;;5024553;28;20120;-76
2022/05/21 05:35:42;;;;;;;6.72;4.03;;;20.10;43.70;;;;;;5022371;28;20053;-78
2022/05/21 05:38:11;;;;;;;7.30;3.90;;;20.20;43.70;;;;;;5021706;28;20037;-77
2022/05/21 05:40:39;;;;;;;6.47;3.97;;;20.30;43.70;;;;;;5021502;28;20030;-77
2022/05/21 05:43:06;;;;;;;6.40;4.03;;;20.30;43.60;;;;;;5006600;28;20479;-78
2022/05/21 05:45:32;;;;;;;8.65;3.97;;;20.40;43.70;;;;;;5021373;28;20416;-78
2022/05/21 05:47:58;;;;;;;5.90;4.10;;;20.50;43.80;;;;;;5021271;28;20038;-79
2022/05/21 05:50:24;;;;;;;9.82;4.22;;;20.60;43.80;;;;;;5025047;28;20965;-77
2022/05/21 05:52:50;;;;;;;12.75;4.68;;;20.70;43.80;;;;;;5022323;28;20044;-78
2022/05/21 05:55:16;;;;;;;6.63;3.90;;;20.70;43.80;;;;;;5020338;28;20034;-78
2022/05/21 05:57:42;;;;;;;5.88;3.75;;;20.80;44.30;;;;;;5021002;28;20504;-78
2022/05/21 06:00:09;;;;;;;6.13;4.07;;;20.80;43.60;;;;;;5020722;28;20099;-77
2022/05/21 06:02:59;;;;;;;6.22;3.50;;;21.00;43.60;;;;;;5023618;28;20124;-77
2022/05/21 06:05:34;;;;;;;5.03;3.38;;;21.00;43.60;;;;;;5003591;28;20068;-76
2022/05/21 06:08:03;;;;;;;6.35;3.38;;;21.00;43.60;;;;;;4989094;28;20058;-77
2022/05/21 06:10:35;;;;;;;4.80;3.38;;;21.10;43.70;;;;;;5007202;28;20471;-76
2022/05/21 06:13:04;;;;;;;6.35;3.45;;;21.10;43.80;;;;;;5021185;28;20549;-77
2022/05/21 06:15:31;;;;;;;6.43;3.35;;;21.20;43.80;;;;;;5020961;28;20054;-77
2022/05/21 06:17:57;;;;;;;6.93;3.47;;;21.30;43.90;;;;;;5019500;28;20072;-77
2022/05/21 06:20:26;;;;;;;6.85;3.58;;;21.30;44.00;;;;;;5020835;28;20091;-78
2022/05/21 06:22:53;;;;;;;8.43;3.00;;;21.30;44.00;;;;;;5003041;28;20516;-78
2022/05/21 06:25:21;;;;;;;5.25;3.00;;;21.30;44.00;;;;;;5020528;28;20030;-77
2022/05/21 06:27:52;;;;;;;5.50;3.00;;;21.40;44.00;;;;;;5020183;28;20037;-78
2022/05/21 06:30:23;;;;;;;3.95;2.90;;;21.40;44.10;;;;;;5021866;28;20520;-80
2022/05/21 06:32:49;;;;;;;4.35;2.65;;;21.50;44.20;;;;;;5006755;28;20127;-77
2022/05/21 06:35:17;;;;;;;7.70;2.80;;;21.50;44.30;;;;;;5020538;28;20088;-92
2022/05/21 06:37:44;;;;;;;6.00;2.67;;;21.50;44.20;;;;;;5013487;28;20029;-92
2022/05/21 06:40:11;;;;;;;3.90;2.30;;;21.60;43.10;;;;;;5024086;28;20128;-81
2022/05/21 06:42:38;;;;;;;3.50;2.10;;;21.70;41.90;;;;;;5021354;28;20052;-84
2022/05/21 06:45:05;;;;;;;2.90;1.80;;;21.80;41.00;;;;;;5020964;28;20105;-82
2022/05/21 06:47:31;;;;;;;5.28;1.70;;;21.90;40.10;;;;;;5020282;28;20058;-82
2022/05/21 06:49:59;;;;;;;4.30;1.33;;;21.90;38.30;;;;;;5021521;28;20076;-80
2022/05/21 06:52:26;;;;;;;1.85;1.25;;;21.90;37.50;;;;;;5019272;28;20523;-81
2022/05/21 06:54:53;;;;;;;3.50;1.27;;;21.90;37.30;;;;;;5020233;28;20034;-81
2022/05/21 06:57:21;;;;;;;3.03;1.20;;;22.00;37.30;;;;;;5022498;28;20025;-80
2022/05/21 06:59:47;;;;;;;3.55;1.60;;;22.00;36.60;;;;;;5025477;28;20519;-81
2022/05/21 07:02:13;;;;;;;3.17;1.30;;;22.10;37.30;;;;;;5009534;28;20033;-80
2022/05/21 07:07:32;;;;;;;1.63;1.50;;;22.10;37.60;;;;;;5021863;28;20067;-80
2022/05/21 07:10:11;;;;;;;2.78;2.10;;;22.10;37.40;;;;;;5004717;28;20060;-79
2022/05/21 07:12:37;;;;;;;4.18;2.10;;;22.10;36.80;;;;;;5025170;28;20610;-79
2022/05/21 07:15:05;;;;;;;4.53;1.70;;;22.10;35.90;;;;;;5021112;28;20121;-79
2022/05/21 07:17:31;;;;;;;2.17;1.55;;;22.10;35.90;;;;;;5020490;28;20034;-80
2022/05/21 07:19:57;;;;;;;6.55;1.80;;;22.10;36.60;;;;;;5007465;28;20033;-82
2022/05/21 07:22:23;;;;;;;1.65;1.25;;;22.10;36.90;;;;;;5022085;28;20128;-81
2022/05/21 07:24:49;;;;;;;2.83;1.60;;;22.10;36.50;;;;;;5002840;28;20045;-80
2022/05/21 07:27:16;;;;;;;2.83;1.50;;;22.10;36.60;;;;;;5024542;28;21103;-81
2022/05/21 07:29:43;;;;;;;3.33;1.90;;;22.10;36.70;;;;;;5003372;28;20063;-82
2022/05/21 07:32:22;;;;;;;4.10;1.70;;;22.00;36.00;;;;;;5021346;28;20064;-84
2022/05/21 07:34:48;;;;;;;2.90;1.20;;;22.00;35.10;;;;;;5006097;28;20029;-82
2022/05/21 07:37:14;;;;;;;2.42;1.33;;;21.90;35.80;;;;;;5003534;28;20048;-82
2022/05/21 07:39:41;;;;;;;2.65;1.60;;;21.90;35.50;;;;;;5007674;28;20026;-83
2022/05/21 07:42:07;;;;;;;3.55;1.63;;;21.80;34.90;;;;;;5021123;28;20087;-82
2022/05/21 07:44:33;;;;;;;5.80;1.90;;;21.80;35.30;;;;;;5003855;28;20084;-83
2022/05/21 07:46:59;;;;;;;3.85;1.90;;;21.70;35.30;;;;;;5011592;28;20061;-83
2022/05/21 07:49:25;;;;;;;3.88;1.50;;;21.60;35.60;;;;;;5008831;28;20128;-82
2022/05/21 07:51:51;;;;;;;4.40;1.77;;;21.60;35.90;;;;;;5023147;28;20773;-85
2022/05/21 07:54:17;;;;;;;5.57;1.50;;;21.60;35.90;;;;;;4996087;28;20522;-85
2022/05/21 07:56:43;;;;;;;4.57;1.80;;;21.60;36.30;;;;;;5010727;28;20125;-84
2022/05/21 07:59:09;;;;;;;3.25;1.75;;;21.50;36.40;;;;;;5025397;28;20114;-82
2022/05/21 08:01:35;;;;;;;4.20;1.48;;;21.40;35.60;;;;;;5025868;28;20095;-82
2022/05/21 08:04:01;;;;;;;3.53;1.67;;;21.30;35.90;;;;;;5022833;28;20037;-84
2022/05/21 08:06:27;;;;;;;2.05;1.33;;;21.30;36.40;;;;;;4993246;28;20396;-84
2022/05/21 08:08:54;;;;;;;4.68;1.83;;;21.20;36.80;;;;;;5040004;28;20105;-83
2022/05/21 08:11:23;;;;;;;3.08;2.03;;;21.20;36.70;;;;;;5031762;28;20057;-83
2022/05/21 08:13:49;;;;;;;3.53;1.85;;;21.20;36.90;;;;;;5036418;28;20060;-84
2022/05/21 08:16:15;;;;;;;2.55;1.75;;;21.20;36.90;;;;;;5049104;28;20045;-86
2022/05/21 08:18:42;;;;;;;2.33;1.60;;;21.10;36.90;;;;;;4996290;28;20041;-85
2022/05/21 08:21:08;;;;;;;5.70;2.13;;;21.10;37.20;;;;;;5024406;28;20037;-83
2022/05/21 08:29:03;;;;;;;3.92;1.50;;;21.00;37.50;;;;;;5043023;28;20483;-81
2022/05/21 08:31:29;;;;;;;2.20;1.75;;;21.00;37.40;;;;;;5027562;28;20464;-84
2022/05/21 08:33:55;;;;;;;4.00;1.80;;;20.90;36.90;;;;;;5008388;28;20060;-84
2022/05/21 08:36:21;;;;;;;2.90;1.35;;;20.90;36.60;;;;;;5012711;28;20025;-84
2022/05/21 08:38:47;;;;;;;3.05;1.88;;;20.90;36.60;;;;;;4995715;28;20395;-84
2022/05/21 08:41:26;;;;;;;4.80;1.63;;;20.80;36.60;;;;;;5024854;28;20132;-83
2022/05/21 08:43:56;;;;;;;6.22;2.05;;;20.70;36.70;;;;;;5024870;28;20033;-82
2022/05/21 08:47:01;;;;;;;6.25;2.38;;;20.70;36.90;;;;;;5027339;28;20042;-82
2022/05/21 08:49:42;;;;;;;3.63;2.15;;;20.70;37.40;;;;;;5010836;28;20053;-82
2022/05/21 08:52:27;;;;;;;5.28;1.90;;;20.60;37.20;;;;;;5022590;28;20034;-81
2022/05/21 08:54:57;;;;;;;5.13;2.15;;;20.60;37.50;;;;;;5011871;28;20064;-83
2022/05/21 08:57:45;;;;;;;9.88;2.50;;;20.50;37.10;;;;;;5006773;28;20034;-81
2022/05/21 09:00:15;;;;;;;4.47;1.95;;;20.50;37.30;;;;;;5025852;28;20037;-82
2022/05/21 09:02:42;;;;;;;3.35;2.20;;;20.40;37.60;;;;;;5006159;28;20080;-83
2022/05/21 09:05:13;;;;;;;6.43;2.30;;;20.40;37.50;;;;;;5023225;28;20037;-81
2022/05/21 09:07:58;;;;;;;5.72;1.85;;;20.40;37.40;;;;;;5024340;28;20603;-81
2022/05/21 09:10:30;;;;;;;2.83;1.70;;;20.30;37.20;;;;;;5025350;28;20103;-81
2022/05/21 09:12:58;;;;;;;2.30;1.80;;;20.30;37.10;;;;;;5024272;28;20565;-82
2022/05/21 09:18:14;;;;;;;5.68;2.13;;;20.20;37.20;;;;;;5025296;28;20056;-84
2022/05/21 09:20:58;;;;;;;3.88;2.25;;;20.20;38.00;;;;;;5005441;28;20080;-86
2022/05/21 09:23:26;;;;;;;3.90;1.63;;;20.10;38.00;;;;;;5020331;28;20038;-83
2022/05/21 09:26:06;;;;;;;4.28;1.80;;;20.10;38.50;;;;;;4990597;28;20057;-81
2022/05/21 09:28:37;;;;;;;4.80;1.90;;;20.10;39.20;;;;;;5029812;28;20044;-83
2022/05/21 09:31:06;;;;;;;6.25;1.90;;;20.10;39.10;;;;;;5024619;28;20040;-79
2022/05/21 09:33:38;;;;;;;3.47;1.92;;;20.00;38.10;;;;;;5023979;28;20030;-76
2022/05/21 09:36:05;;;;;;;5.75;1.83;;;20.00;37.40;;;;;;5023433;28;20038;-75
2022/05/21 09:38:48;;;;;;;4.32;2.60;;;20.00;37.10;;;;;;5021145;28;20044;-77
2022/05/21 09:41:29;;;;;;;3.85;2.33;;;19.90;37.00;;;;;;5022816;28;20361;-74
2022/05/21 09:47:09;;;;;;;3.28;2.00;;;19.80;35.60;;;;;;5023072;28;20026;-77
2022/05/21 09:49:35;;;;;;;5.88;2.65;;;19.70;34.90;;;;;;5022808;28;20697;-76
2022/05/21 09:52:04;;;;;;;4.45;2.55;;;19.60;34.60;;;;;;5021427;28;20496;-76
2022/05/21 09:54:37;;;;;;;9.15;2.72;;;19.50;34.40;;;;;;5022634;28;20037;-77
2022/05/21 09:57:04;;;;;;;6.40;2.72;;;19.50;35.10;;;;;;5022876;28;20076;-76
2022/05/21 09:59:33;;;;;;;4.43;2.47;;;19.50;35.20;;;;;;5019311;28;20926;-76
2022/05/21 10:02:19;;;;;;;4.78;2.50;;;19.50;34.80;;;;;;5020821;28;20511;-76
2022/05/21 10:04:55;;;;;;;4.53;2.10;;;19.40;34.60;;;;;;5022346;28;20045;-75
2022/05/21 10:13:07;;;;;;;3.95;2.45;;;19.30;35.30;;;;;;5020333;28;20029;-75
2022/05/21 10:15:40;;;;;;;11.68;2.50;;;19.30;35.50;;;;;;5019931;28;20049;-74
2022/05/21 10:18:12;;;;;;;4.32;2.80;;;19.30;35.70;;;;;;5023227;28;20045;-75
2022/05/21 10:20:46;;;;;;;3.72;2.53;;;19.30;35.30;;;;;;5021570;28;20037;-75
2022/05/21 10:23:37;;;;;;;3.92;2.45;;;19.20;34.20;;;;;;5023274;28;20036;-75
2022/05/21 10:26:08;;;;;;;4.30;2.03;;;19.20;33.50;;;;;;5015959;28;21335;-76
2022/05/21 10:28:40;;;;;;;6.97;2.33;;;19.10;33.60;;;;;;5022014;28;20083;-75
2022/05/21 10:31:26;;;;;;;2.97;2.40;;;19.10;33.80;;;;;;5004941;28;20533;-76
2022/05/21 10:34:17;;;;;;;2.92;2.42;;;19.10;34.00;;;;;;5021853;28;20034;-76
2022/05/21 10:37:07;;;;;;;3.13;2.40;;;19.10;34.30;;;;;;5024914;28;20095;-76
2022/05/21 10:40:10;;;;;;;3.33;2.13;;;19.10;34.50;;;;;;5022006;28;20168;-77
2022/05/21 10:42:54;;;;;;;5.50;2.47;;;19.00;34.00;;;;;;5017456;28;20038;-77
2022/05/21 10:45:34;;;;;;;5.82;2.47;;;19.00;34.30;;;;;;5022453;28;20037;-77
2022/05/21 10:48:12;;;;;;;4.95;2.75;;;19.00;34.50;;;;;;5025275;28;20030;-78
2022/05/21 10:51:09;;;;;;;5.47;2.50;;;19.00;34.40;;;;;;5005367;28;20369;-76
2022/05/21 10:53:59;;;;;;;4.85;2.80;;;19.00;33.90;;;;;;5020165;28;20033;-76
2022/05/21 10:56:36;;;;;;;6.20;2.90;;;19.00;33.90;;;;;;5022520;28;20029;-78
2022/05/21 10:59:21;;;;;;;6.75;2.65;;;19.00;33.20;;;;;;5004352;28;20033;-77
2022/05/21 11:02:17;;;;;;;5.13;2.67;;;18.90;33.30;;;;;;5002847;28;20125;-77
2022/05/21 11:05:02;;;;;;;6.95;2.67;;;18.90;33.00;;;;;;5026765;28;20061;-77
2022/05/21 11:07:51;;;;;;;5.78;2.70;;;18.90;33.30;;;;;;5023914;28;20550;-78
2022/05/21 11:10:59;;;;;;;5.25;2.65;;;18.90;33.40;;;;;;5024694;28;20041;-78
2022/05/21 11:13:36;;;;;;;6.30;2.60;;;18.90;33.40;;;;;;5008904;28;20551;-78
2022/05/21 11:16:19;;;;;;;7.03;2.80;;;18.90;33.30;;;;;;5022498;28;20052;-79
2022/05/21 11:18:44;;;;;;;5.32;2.67;;;18.80;33.30;;;;;;5020718;28;20038;-78
2022/05/21 11:21:22;;;;;;;4.55;2.97;;;18.80;33.60;;;;;;5022363;28;20132;-76
2022/05/21 11:24:08;;;;;;;6.47;2.63;;;18.80;33.70;;;;;;5016867;28;20048;-76
2022/05/21 11:26:49;;;;;;;7.18;2.50;;;18.80;33.60;;;;;;5021031;28;20069;-77
2022/05/21 11:29:37;;;;;;;3.05;2.50;;;18.80;33.80;;;;;;5020809;28;20435;-79
2022/05/21 11:37:51;;;;;;;6.18;2.60;;;18.90;34.00;;;;;;5023393;28;20504;-76
2022/05/21 11:41:24;;;;;;;3.53;2.50;;;18.90;34.10;;;;;;5035773;28;20124;-78
2022/05/21 11:46:52;;;;;;;4.40;2.30;;;18.90;34.20;;;;;;4999620;28;20054;-78
2022/05/21 11:49:29;;;;;;;9.02;3.20;;;18.90;34.50;;;;;;5020238;28;20033;-81
2022/05/21 11:51:58;;;;;;;7.57;3.20;;;18.90;34.10;;;;;;5021352;28;20544;-81
2022/05/21 11:54:47;;;;;;;8.18;3.75;;;18.90;33.80;;;;;;5015444;28;20048;-82
2022/05/21 11:57:29;;;;;;;6.40;3.00;;;18.80;33.30;;;;;;5021340;28;20416;-81
2022/05/21 11:59:56;;;;;;;4.22;3.35;;;18.80;33.30;;;;;;5020755;28;20081;-81
2022/05/21 12:02:32;;;;;;;5.40;3.10;;;18.80;33.30;;;;;;5021932;28;20046;-81
2022/05/21 12:05:01;;;;;;;4.72;2.90;;;18.80;33.40;;;;;;5005499;28;20411;-81
2022/05/21 12:07:53;;;;;;;6.15;2.80;;;18.80;33.40;;;;;;5004217;28;20137;-79
2022/05/21 12:10:24;;;;;;;5.43;3.20;;;18.80;33.50;;;;;;5017438;28;20054;-77
2022/05/21 12:13:12;;;;;;;5.20;3.00;;;18.80;34.00;;;;;;5035826;28;21428;-77
2022/05/21 12:15:40;;;;;;;7.28;3.38;;;18.80;34.50;;;;;;5019788;28;20086;-78
2022/05/21 12:18:30;;;;;;;7.03;3.20;;;18.80;34.70;;;;;;5021179;28;20075;-76
2022/05/21 12:20:56;;;;;;;4.75;2.97;;;18.80;35.00;;;;;;5019231;28;20041;-76
2022/05/21 12:23:34;;;;;;;5.65;2.97;;;18.80;34.90;;;;;;5017386;28;20048;-76
2022/05/21 12:26:18;;;;;;;5.57;2.92;;;18.80;34.90;;;;;;5018599;28;20030;-75
2022/05/21 12:28:56;;;;;;;5.80;3.35;;;18.80;34.70;;;;;;5018836;28;20036;-78
2022/05/21 12:31:28;;;;;;;4.18;3.30;;;18.80;34.60;;;;;;5020581;28;20033;-78
2022/05/21 12:34:13;;;;;;;6.35;3.25;;;18.80;34.70;;;;;;5024743;28;20038;-78
2022/05/21 12:37:09;;;;;;;4.65;2.90;;;18.80;34.90;;;;;;5023923;28;20030;-77
2022/05/21 12:40:00;;;;;;;4.65;3.03;;;18.80;34.90;;;;;;5023866;28;20393;-78
2022/05/21 12:42:53;;;;;;;5.70;3.53;;;18.80;34.80;;;;;;5037762;28;20038;-78
2022/05/21 12:45:43;;;;;;;7.05;3.42;;;18.80;34.90;;;;;;5021818;28;20536;-77
2022/05/21 12:48:13;;;;;;;6.07;2.88;;;18.80;35.20;;;;;;5023726;28;20041;-77
2022/05/21 12:50:52;;;;;;;5.95;3.10;;;18.80;35.40;;;;;;5024005;28;20457;-79
2022/05/21 12:53:24;;;;;;;5.50;3.22;;;18.80;35.60;;;;;;5025552;28;20674;-77
2022/05/21 12:56:29;;;;;;;8.90;3.75;;;18.90;35.30;;;;;;5029425;28;20033;-78
2022/05/21 12:59:15;;;;;;;5.20;3.22;;;18.90;34.90;;;;;;5046745;28;20511;-77
2022/05/21 13:01:52;;;;;;;4.32;2.95;;;18.90;35.00;;;;;;5031962;28;20042;-78
2022/05/21 13:04:38;;;;;;;4.85;3.03;;;18.90;35.10;;;;;;5030070;28;20521;-78
2022/05/21 13:07:15;;;;;;;5.93;3.30;;;18.90;34.90;;;;;;5024103;28;20048;-78
2022/05/21 13:09:59;;;;;;;3.97;3.50;;;18.90;34.70;;;;;;5021642;28;20037;-77
2022/05/21 13:12:39;;;;;;;4.00;3.55;;;18.90;34.40;;;;;;5022018;28;20152;-77
2022/05/21 13:15:12;;;;;;;5.20;3.10;;;18.90;34.50;;;;;;5019280;28;20081;-77
2022/05/21 13:17:50;;;;;;;9.40;3.30;;;18.90;34.40;;;;;;5022707;28;20473;-77
2022/05/21 13:20:50;;;;;;;3.70;3.10;;;18.90;34.60;;;;;;5021527;28;20033;-77
2022/05/21 13:23:30;;;;;;;9.45;3.72;;;18.90;34.40;;;;;;5023234;28;20069;-77
2022/05/21 13:25:56;;;;;;;7.95;3.33;;;18.90;34.30;;;;;;5025214;28;20068;-77
2022/05/21 13:28:25;;;;;;;6.35;3.17;;;18.90;34.50;;;;;;5021836;28;20041;-77
2022/05/21 13:30:51;;;;;;;7.70;3.50;;;18.90;34.90;;;;;;5022075;28;20041;-77
2022/05/21 13:33:31;;;;;;;5.28;3.63;;;18.90;35.20;;;;;;5023230;28;20037;-77
2022/05/21 13:35:59;;;;;;;7.30;3.45;;;18.90;35.20;;;;;;5021671;28;20034;-77
2022/05/21 13:38:35;;;;;;;9.23;3.33;;;18.90;35.20;;;;;;5020988;28;20617;-77
2022/05/21 13:41:13;;;;;;;4.57;2.97;;;18.90;35.20;;;;;;5021731;28;20025;-76
2022/05/21 13:43:46;;;;;;;9.27;3.50;;;18.90;35.30;;;;;;5022543;28;20026;-77